Airfield :
LOGIN :

Register | Disclaimer

   EN    FR    IT 

 










Legend :    VFR   Marginal VFR   IFR   Intensive IFR   Very Intensive IFR
Visi :
Ceiling :
>= 8 km
>= 3000ft
5 to 8 km
1000 to 3000 ft
1500m to 5 km
500 to 1000 ft
800 to 1500m
200 to 500 ft
< 800m
< 200 ft
Symbols :   Thunderstorms  Fog  Heavy snow  Heavy precipitations  Wind > 20 kt
SIGMETs :     Misc.  Thunderstorms  Icing  Turbulence  Mountain Waves  Volcanic Ashes







- Airport Elevation : 584 ft
- Download approach charts


LFPV - Villacoublay Vélizy

CURRENT METAR :
  • 230630Z AUTO /////KT 9999 BKN038 13/12 Q1016

EXPIRED METARs :
  • 230600Z AUTO /////KT 9999 FEW043 13/12 Q1015
  • 230530Z AUTO /////KT 9999 FEW036 13/12 Q1015
  • 230500Z AUTO /////KT 9999 SCT012 BKN043 14/12 Q1015
  • 230430Z AUTO /////KT 9999 SCT011 OVC042 14/13 Q1014
  • 230400Z AUTO /////KT 9999 SCT009 OVC042 14/12 Q1014
  • 230000Z AUTO /////KT CAVOK 14/12 Q1012

TAF AMD TAF LFPV
Valid from the 23 at 04:00 until the 24 at 03:00 UTC


230409Z 2304/2403 23008KT 9999 SCT030
TEMPO 2304/2309 SCT008 BKN014
TEMPO 2319/2401 4500 -RA
No reported NOTAMs for that airfield.



MET'MAP, your aeronautical weather chart ! - Copyright ORBIFLY December 2007 - Disclaimer

ORBIFLY MET'MAP TEAM :

Programming & Development : Alexandra Zaïnal
Concept & Development : Baudouin d'Aumeries
Co-Development & Prog : Marc-Olivier Méhu
Technical & hardware support : Manuel Goepfert

Contact : metmap@orbifly.com




SOURCES & CREDITS :

   NOAA